createdAt,value
2022-09-10T00:01:35.241Z,98259.72
2022-09-10T00:04:07.439Z,98247.56
2022-09-10T00:06:38.566Z,98238.13
2022-09-10T00:09:06.754Z,98247.50
2022-09-10T00:11:35.223Z,98232.66
2022-09-10T00:14:04.613Z,98223.47
2022-09-10T00:16:32.561Z,98225.00
2022-09-10T00:19:01.745Z,98220.22
2022-09-10T00:21:30.029Z,98223.69
2022-09-10T00:23:57.812Z,98226.16
2022-09-10T00:26:27.801Z,98229.41
2022-09-10T00:28:57.085Z,98231.03
2022-09-10T00:31:24.502Z,98226.44
2022-09-10T00:33:52.597Z,98227.25
2022-09-10T00:36:27.133Z,98233.72
2022-09-10T00:38:57.734Z,98232.66
2022-09-10T00:41:26.189Z,98232.66
2022-09-10T00:44:02.539Z,98233.22
2022-09-10T00:46:36.905Z,98236.75
2022-09-10T00:49:15.320Z,98245.63
2022-09-10T00:51:45.149Z,98236.41
2022-09-10T00:54:14.159Z,98238.53
2022-09-10T00:56:43.090Z,98233.31
2022-09-10T00:59:14.558Z,98246.94
2022-09-10T01:01:42.509Z,98252.31
2022-09-10T01:04:10.663Z,98256.63
2022-09-10T01:06:40.877Z,98262.00
2022-09-10T01:09:09.532Z,98257.94
2022-09-10T01:12:08.957Z,98269.22
2022-09-10T01:14:39.337Z,98265.03
2022-09-10T01:17:25.981Z,98266.75
2022-09-10T01:20:26.273Z,98263.47
2022-09-10T01:23:17.021Z,98259.31
2022-09-10T01:25:48.436Z,98258.38
2022-09-10T01:28:25.232Z,98241.84
2022-09-10T01:31:01.437Z,98241.25
2022-09-10T01:33:41.781Z,98234.75
2022-09-10T01:36:22.087Z,98240.13
2022-09-10T01:38:51.552Z,98250.88
2022-09-10T01:41:23.281Z,98240.00
2022-09-10T01:43:50.636Z,98248.38
2022-09-10T01:46:54.944Z,98244.28
2022-09-10T01:50:01.468Z,98245.38
2022-09-10T01:52:38.105Z,98247.22
2022-09-10T01:55:22.438Z,98242.72
2022-09-10T01:57:59.563Z,98239.22
2022-09-10T02:00:28.000Z,98234.09
2022-09-10T02:03:24.705Z,98242.88
2022-09-10T02:05:54.426Z,98239.28
2022-09-10T02:08:32.630Z,98229.09
2022-09-10T02:11:09.176Z,98219.91
2022-09-10T02:13:36.866Z,98215.34
2022-09-10T02:16:11.205Z,98220.72
2022-09-10T02:18:40.096Z,98226.41
2022-09-10T02:21:09.277Z,98228.72
2022-09-10T02:23:42.201Z,98233.13
2022-09-10T02:26:11.246Z,98232.63
2022-09-10T02:28:38.809Z,98227.59
2022-09-10T02:31:06.227Z,98218.47
2022-09-10T02:33:34.055Z,98213.09
2022-09-10T02:36:02.155Z,98211.22
2022-09-10T02:38:30.099Z,98210.16
2022-09-10T02:40:59.202Z,98201.03
2022-09-10T02:43:28.292Z,98204.63
2022-09-10T02:45:57.308Z,98210.00
2022-09-10T02:48:26.157Z,98203.81
2022-09-10T02:50:54.841Z,98205.13
2022-09-10T02:53:22.181Z,98196.47
2022-09-10T02:55:49.738Z,98202.66
2022-09-10T02:58:17.737Z,98201.63
2022-09-10T03:00:45.680Z,98204.63
2022-09-10T03:03:14.298Z,98201.63
2022-09-10T03:05:41.647Z,98216.69
2022-09-10T03:08:09.856Z,98211.88
2022-09-10T03:10:39.468Z,98207.00
2022-09-10T03:13:06.849Z,98206.91
2022-09-10T03:15:34.356Z,98206.25
2022-09-10T03:18:01.970Z,98201.09
2022-09-10T03:20:29.342Z,98204.06
2022-09-10T03:22:57.176Z,98198.09
2022-09-10T03:25:25.574Z,98199.38
2022-09-10T03:27:52.913Z,98205.81
2022-09-10T03:30:21.166Z,98192.63
2022-09-10T03:32:49.141Z,98191.00
2022-09-10T03:35:16.835Z,98195.22
2022-09-10T03:37:44.318Z,98195.63
2022-09-10T03:40:11.916Z,98189.78
2022-09-10T03:42:39.339Z,98187.31
2022-09-10T03:45:07.414Z,98183.25
2022-09-10T03:47:37.725Z,98170.88
2022-09-10T03:50:05.622Z,98163.94
2022-09-10T03:52:33.526Z,98168.28
2022-09-10T03:55:01.015Z,98170.47
2022-09-10T03:57:28.464Z,98164.19
2022-09-10T03:59:56.665Z,98167.13
2022-09-10T04:02:24.363Z,98163.94
2022-09-10T04:04:52.025Z,98175.84
2022-09-10T04:07:19.391Z,98188.78
2022-09-10T04:09:47.058Z,98191.59
2022-09-10T04:12:14.522Z,98198.34
2022-09-10T04:14:45.320Z,98199.94
2022-09-10T04:17:13.383Z,98191.88
2022-09-10T04:19:40.727Z,98195.16
2022-09-10T04:22:08.086Z,98193.88
2022-09-10T04:24:35.569Z,98195.50
2022-09-10T04:27:02.968Z,98192.56
2022-09-10T04:29:31.410Z,98190.69
2022-09-10T04:31:58.906Z,98188.81
2022-09-10T04:34:26.227Z,98190.19
2022-09-10T04:36:53.630Z,98194.53
2022-09-10T04:39:21.185Z,98192.41
2022-09-10T04:41:48.484Z,98195.09
2022-09-10T04:44:20.097Z,98195.09
2022-09-10T04:46:47.936Z,98193.22
2022-09-10T04:49:15.274Z,98192.41
2022-09-10T04:51:42.707Z,98185.97
2022-09-10T04:54:13.487Z,98187.59
2022-09-10T04:56:41.141Z,98183.28
2022-09-10T04:59:10.784Z,98184.91
2022-09-10T05:01:38.380Z,98182.47
2022-09-10T05:04:05.735Z,98178.16
2022-09-10T05:06:34.337Z,98177.09
2022-09-10T05:09:02.017Z,98176.28
2022-09-10T05:11:29.413Z,98183.28
2022-09-10T05:13:56.737Z,98178.69
2022-09-10T05:16:24.690Z,98173.31
2022-09-10T05:18:53.215Z,98169.84
2022-09-10T05:21:20.542Z,98160.16
2022-09-10T05:23:48.103Z,98168.78
2022-09-10T05:26:15.475Z,98160.16
2022-09-10T05:28:42.838Z,98159.06
2022-09-10T05:31:10.385Z,98153.97
2022-09-10T05:33:40.716Z,98150.44
2022-09-10T05:36:11.583Z,98146.94
2022-09-10T05:38:40.114Z,98137.00
2022-09-10T05:41:11.238Z,98145.06
2022-09-10T05:43:40.257Z,98142.38
2022-09-10T05:46:08.309Z,98132.19
2022-09-10T05:48:39.626Z,98134.88
2022-09-10T05:51:09.335Z,98133.28
2022-09-10T05:53:38.185Z,98128.94
2022-09-10T05:56:06.503Z,98130.81
2022-09-10T05:58:34.621Z,98129.19
2022-09-10T06:01:02.008Z,98135.38
2022-09-10T06:03:29.469Z,98130.47
2022-09-10T06:05:56.929Z,98138.06
2022-09-10T06:08:24.405Z,98137.00
2022-09-10T06:11:00.299Z,98136.19
2022-09-10T06:13:27.889Z,98138.88
2022-09-10T06:15:55.613Z,98138.88
2022-09-10T06:18:23.156Z,98134.88
2022-09-10T06:21:01.065Z,98134.88
2022-09-10T06:23:28.473Z,98131.16
2022-09-10T06:26:01.892Z,98130.31
2022-09-10T06:28:29.293Z,98131.63
2022-09-10T06:30:57.095Z,98128.88
2022-09-10T06:33:24.778Z,98125.38
2022-09-10T06:35:56.825Z,98124.06
2022-09-10T06:38:25.354Z,98126.75
2022-09-10T06:40:59.183Z,98124.63
2022-09-10T06:43:27.871Z,98123.00
2022-09-10T06:45:55.959Z,98119.50
2022-09-10T06:48:48.474Z,98122.41
2022-09-10T06:51:16.558Z,98117.63
2022-09-10T06:53:46.528Z,98123.00
2022-09-10T06:56:15.141Z,98112.75
2022-09-10T06:58:42.754Z,98118.13
2022-09-10T07:01:13.782Z,98111.09
2022-09-10T07:03:43.445Z,98115.94
2022-09-10T07:06:13.965Z,98112.75
2022-09-10T07:08:42.200Z,98110.13
2022-09-10T07:11:14.586Z,98116.06
2022-09-10T07:13:45.733Z,98120.97
2022-09-10T07:16:17.240Z,98118.84
2022-09-10T07:18:48.157Z,98119.41
2022-09-10T07:21:16.331Z,98126.91
2022-09-10T07:23:44.377Z,98122.34
2022-09-10T07:26:13.972Z,98129.34
2022-09-10T07:28:42.816Z,98128.84
2022-09-10T07:31:16.602Z,98132.94
2022-09-10T07:33:45.292Z,98133.72
2022-09-10T07:36:13.078Z,98144.03
2022-09-10T07:38:42.055Z,98138.41
2022-09-10T07:41:11.952Z,98136.84
2022-09-10T07:43:43.751Z,98143.88
2022-09-10T07:46:19.469Z,98144.84
2022-09-10T07:48:58.053Z,98153.16
2022-09-10T07:51:27.704Z,98159.47
2022-09-10T07:53:57.211Z,98162.44
2022-09-10T07:56:25.862Z,98168.28
2022-09-10T07:58:54.068Z,98164.06
2022-09-10T08:01:21.558Z,98170.56
2022-09-10T08:03:49.351Z,98175.94
2022-09-10T08:06:17.119Z,98170.56
2022-09-10T08:08:44.656Z,98165.78
2022-09-10T08:11:17.966Z,98171.38
2022-09-10T08:13:49.005Z,98180.19
2022-09-10T08:16:24.344Z,98176.19
2022-09-10T08:18:52.144Z,98179.81
2022-09-10T08:21:19.945Z,98187.38
2022-09-10T08:23:54.070Z,98182.00
2022-09-10T08:26:24.280Z,98172.22
2022-09-10T08:28:53.464Z,98187.69
2022-09-10T08:31:22.734Z,98185.56
2022-09-10T08:33:52.083Z,98182.97
2022-09-10T08:36:21.794Z,98187.75
2022-09-10T08:38:50.407Z,98181.31
2022-09-10T08:41:26.708Z,98190.44
2022-09-10T08:44:03.273Z,98182.38
2022-09-10T08:46:45.345Z,98194.28
2022-09-10T08:49:54.475Z,98192.75
2022-09-10T08:52:40.765Z,98189.59
2022-09-10T08:55:17.153Z,98191.78
2022-09-10T08:58:20.868Z,98189.66
2022-09-10T09:00:55.862Z,98182.16
2022-09-10T09:03:28.534Z,98178.41
2022-09-10T09:06:04.103Z,98173.34
2022-09-10T09:08:41.009Z,98167.16
2022-09-10T09:11:52.711Z,98175.22
2022-09-10T09:15:03.838Z,98169.28
2022-09-10T09:18:06.597Z,98167.06
2022-09-10T09:20:51.545Z,98161.97
2022-09-10T09:23:33.115Z,98157.06
2022-09-10T09:26:20.952Z,98163.50
2022-09-10T09:29:11.290Z,98162.94
2022-09-10T09:31:43.267Z,98172.56
2022-09-10T09:34:22.657Z,98163.41
2022-09-10T09:36:53.824Z,98166.66
2022-09-10T09:39:25.591Z,98173.88
2022-09-10T09:42:15.761Z,98172.03
2022-09-10T09:44:57.290Z,98172.50
2022-09-10T09:47:24.722Z,98173.56
2022-09-10T09:49:53.939Z,98176.03
2022-09-10T09:52:23.146Z,98176.59
2022-09-10T09:55:15.947Z,98165.84
2022-09-10T09:57:44.893Z,98169.13
2022-09-10T10:00:36.026Z,98165.34
2022-09-10T10:03:18.245Z,98163.25
2022-09-10T10:05:47.293Z,98162.66
2022-09-10T10:08:31.493Z,98153.00
2022-09-10T10:10:59.266Z,98154.59
2022-09-10T10:13:39.825Z,98151.69
2022-09-10T10:16:20.959Z,98147.69
2022-09-10T10:18:49.646Z,98144.75
2022-09-10T10:21:23.371Z,98143.34
2022-09-10T10:23:50.881Z,98147.13
2022-09-10T10:26:20.954Z,98138.97
2022-09-10T10:28:59.762Z,98139.78
2022-09-10T10:31:38.727Z,98140.41
2022-09-10T10:34:15.014Z,98139.94
2022-09-10T10:37:20.159Z,98142.69
2022-09-10T10:40:24.554Z,98135.47
2022-09-10T10:43:04.128Z,98133.94
2022-09-10T10:45:38.337Z,98126.41
2022-09-10T10:48:17.522Z,98137.16
2022-09-10T10:51:15.011Z,98124.88
2022-09-10T10:53:51.681Z,98118.44
2022-09-10T10:56:42.571Z,98122.50
2022-09-10T10:59:44.706Z,98113.66
2022-09-10T11:02:21.417Z,98107.19
2022-09-10T11:04:55.152Z,98122.09
2022-09-10T11:07:29.676Z,98117.31
2022-09-10T11:10:03.728Z,98113.06
2022-09-10T11:12:39.915Z,98119.59
2022-09-10T11:15:19.868Z,98125.44
2022-09-10T11:18:17.099Z,98124.13
2022-09-10T11:20:56.190Z,98126.59
2022-09-10T11:23:41.783Z,98122.69
2022-09-10T11:26:21.897Z,98122.84
2022-09-10T11:29:16.900Z,98124.28
2022-09-10T11:31:53.872Z,98113.06
2022-09-10T11:34:32.873Z,98110.28
2022-09-10T11:37:35.942Z,98116.66
2022-09-10T11:40:13.493Z,98108.50
2022-09-10T11:42:46.737Z,98107.34
2022-09-10T11:45:23.535Z,98096.72
2022-09-10T11:48:00.361Z,98098.66
2022-09-10T11:50:34.843Z,98092.31
2022-09-10T11:53:07.362Z,98087.81
2022-09-10T11:55:50.535Z,98081.97
2022-09-10T11:58:32.630Z,98080.66
2022-09-10T12:01:13.362Z,98075.63
2022-09-10T12:03:56.195Z,98077.72
2022-09-10T12:06:47.083Z,98080.59
2022-09-10T12:09:26.337Z,98074.53
2022-09-10T12:12:09.350Z,98074.38
2022-09-10T12:14:39.569Z,98067.44
2022-09-10T12:17:23.480Z,98067.44
2022-09-10T12:19:57.488Z,98070.81
2022-09-10T12:22:36.945Z,98066.09
2022-09-10T12:25:22.878Z,98062.59
2022-09-10T12:27:56.744Z,98066.47
2022-09-10T12:30:27.549Z,98064.78
2022-09-10T12:32:59.145Z,98054.63
2022-09-10T12:35:30.342Z,98053.03
2022-09-10T12:38:36.724Z,98049.31
2022-09-10T12:41:08.815Z,98048.81
2022-09-10T12:43:39.076Z,98050.69
2022-09-10T12:46:06.900Z,98044.00
2022-09-10T12:48:36.997Z,98040.19
2022-09-10T12:51:18.955Z,98031.31
2022-09-10T12:54:04.660Z,98029.94
2022-09-10T12:56:57.946Z,98035.81
2022-09-10T12:59:51.219Z,98029.88
2022-09-10T13:02:30.036Z,98024.06
2022-09-10T13:05:06.196Z,98024.50
2022-09-10T13:07:40.204Z,98022.56
2022-09-10T13:10:29.017Z,98025.78
2022-09-10T13:13:01.219Z,98017.50
2022-09-10T13:15:35.439Z,98011.63
2022-09-10T13:18:09.030Z,98012.13
2022-09-10T13:20:38.890Z,98009.53
2022-09-10T13:23:09.226Z,98013.31
2022-09-10T13:25:41.527Z,98019.78
2022-09-10T13:28:43.060Z,98014.41
2022-09-10T13:31:17.061Z,98013.41
2022-09-10T13:33:52.023Z,98009.00
2022-09-10T13:36:43.723Z,98008.84
2022-09-10T13:39:46.170Z,98000.66
2022-09-10T13:42:32.379Z,98012.72
2022-09-10T13:45:24.088Z,98006.53
2022-09-10T13:47:58.808Z,98000.97
2022-09-10T13:50:31.079Z,98004.81
2022-09-10T13:53:03.466Z,98002.13
2022-09-10T13:55:32.097Z,98010.22
2022-09-10T13:58:15.470Z,98005.38
2022-09-10T14:00:54.788Z,98005.38
2022-09-10T14:03:35.066Z,98000.47
2022-09-10T14:06:18.719Z,98003.72
2022-09-10T14:09:04.593Z,98002.59
2022-09-10T14:11:37.953Z,97993.84
2022-09-10T14:14:11.186Z,97991.91
2022-09-10T14:16:48.501Z,97985.22
2022-09-10T14:19:49.239Z,97979.34
2022-09-10T14:22:22.193Z,97968.63
2022-09-10T14:24:53.579Z,97972.22
2022-09-10T14:27:37.273Z,97967.41
2022-09-10T14:30:23.331Z,97974.56
2022-09-10T14:32:52.168Z,97973.47
2022-09-10T14:35:36.333Z,97977.72
2022-09-10T14:38:36.611Z,97972.75
2022-09-10T14:41:11.047Z,97976.75
2022-09-10T14:43:40.484Z,97971.69
2022-09-10T14:46:12.347Z,97972.81
2022-09-10T14:49:07.821Z,97978.84
2022-09-10T14:51:35.159Z,97978.34
2022-09-10T14:54:03.527Z,97982.72
2022-09-10T14:56:38.612Z,97974.91
2022-09-10T14:59:16.089Z,97975.09
2022-09-10T15:01:48.582Z,97970.78
2022-09-10T15:04:19.109Z,97974.94
2022-09-10T15:06:46.578Z,97973.31
2022-09-10T15:09:14.946Z,97977.56
2022-09-10T15:11:55.720Z,97973.00
2022-09-10T15:14:23.160Z,97970.06
2022-09-10T15:16:52.203Z,97966.31
2022-09-10T15:19:21.994Z,97966.63
2022-09-10T15:21:50.386Z,97963.72
2022-09-10T15:24:20.921Z,97964.19
2022-09-10T15:26:49.581Z,97966.88
2022-09-10T15:29:17.856Z,97969.28
2022-09-10T15:31:45.460Z,97973.81
2022-09-10T15:34:12.966Z,97973.31
2022-09-10T15:36:42.363Z,97968.75
2022-09-10T15:39:12.490Z,97979.75
2022-09-10T15:41:44.298Z,97980.81
2022-09-10T15:44:12.076Z,97984.72
2022-09-10T15:46:45.311Z,97983.59
2022-09-10T15:49:13.001Z,97984.44
2022-09-10T15:51:41.300Z,97981.41
2022-09-10T15:54:10.548Z,97986.56
2022-09-10T15:56:39.522Z,97984.16
2022-09-10T15:59:08.551Z,97981.81
2022-09-10T16:01:38.319Z,97993.38
2022-09-10T16:04:07.634Z,97992.03
2022-09-10T16:06:37.814Z,97996.63
2022-09-10T16:09:11.334Z,97996.13
2022-09-10T16:11:41.057Z,97979.75
2022-09-10T16:14:12.098Z,97991.06
2022-09-10T16:16:40.955Z,97999.06
2022-09-10T16:19:10.554Z,97999.06
2022-09-10T16:21:39.281Z,98004.38
2022-09-10T16:24:07.683Z,98011.78
2022-09-10T16:26:38.361Z,98009.53
2022-09-10T16:29:12.204Z,98016.19
2022-09-10T16:31:40.373Z,98023.66
2022-09-10T16:34:11.489Z,98030.84
2022-09-10T16:36:40.004Z,98018.97
2022-09-10T16:39:14.037Z,98022.69
2022-09-10T16:41:44.125Z,98017.66
2022-09-10T16:44:12.882Z,98003.66
2022-09-10T16:46:41.075Z,98005.59
2022-09-10T16:49:13.872Z,98014.22
2022-09-10T16:51:42.871Z,98012.63
2022-09-10T16:54:11.131Z,98013.44
2022-09-10T16:56:39.946Z,98016.19
2022-09-10T16:59:15.130Z,98015.53
2022-09-10T17:01:44.516Z,98014.56
2022-09-10T17:04:21.321Z,98012.50
2022-09-10T17:06:51.126Z,98018.22
2022-09-10T17:09:19.183Z,98020.16
2022-09-10T17:11:47.295Z,98006.22
2022-09-10T17:14:14.711Z,98007.91
2022-09-10T17:16:43.720Z,98002.28
2022-09-10T17:19:14.185Z,98001.78
2022-09-10T17:21:48.732Z,98003.97
2022-09-10T17:24:18.866Z,98006.19
2022-09-10T17:26:46.615Z,98000.00
2022-09-10T17:29:16.428Z,98007.78
2022-09-10T17:31:48.960Z,97999.47
2022-09-10T17:34:17.184Z,98001.13
2022-09-10T17:36:46.937Z,98001.41
2022-09-10T17:39:15.821Z,97997.88
2022-09-10T17:41:43.400Z,98004.81
2022-09-10T17:44:11.667Z,98001.78
2022-09-10T17:46:41.879Z,97999.34
2022-09-10T17:49:13.369Z,98005.78
2022-09-10T17:51:41.954Z,98002.03
2022-09-10T17:54:09.679Z,98004.47
2022-09-10T17:56:38.089Z,98005.84
2022-09-10T17:59:06.413Z,98014.47
2022-09-10T18:01:38.796Z,98008.06
2022-09-10T18:04:09.111Z,98011.56
2022-09-10T18:06:37.970Z,98016.69
2022-09-10T18:09:06.083Z,98008.63
2022-09-10T18:11:37.624Z,98011.88
2022-09-10T18:14:05.727Z,98009.72
2022-09-10T18:16:34.944Z,98023.72
2022-09-10T18:19:12.843Z,98011.13
2022-09-10T18:21:43.990Z,98016.25
2022-09-10T18:24:17.141Z,98020.59
2022-09-10T18:26:49.258Z,98015.44
2022-09-10T18:29:22.698Z,98022.69
2022-09-10T18:31:53.099Z,98019.94
2022-09-10T18:34:27.974Z,98027.16
2022-09-10T18:36:58.776Z,98021.78
2022-09-10T18:39:28.496Z,98019.38
2022-09-10T18:41:57.257Z,98022.88
2022-09-10T18:44:27.664Z,98021.50
2022-09-10T18:46:59.655Z,98018.81
2022-09-10T18:49:28.264Z,98011.56
2022-09-10T18:52:00.385Z,98014.00
2022-09-10T18:54:28.757Z,98019.38
2022-09-10T18:56:58.201Z,98017.16
2022-09-10T18:59:27.257Z,98021.75
2022-09-10T19:01:56.039Z,98013.09
2022-09-10T19:04:26.804Z,98021.97
2022-09-10T19:06:58.976Z,98022.25
2022-09-10T19:09:29.328Z,98020.38
2022-09-10T19:12:02.815Z,98025.75
2022-09-10T19:14:35.645Z,98024.09
2022-09-10T19:17:06.583Z,98015.47
2022-09-10T19:19:42.352Z,98020.84
2022-09-10T19:22:11.509Z,98017.59
2022-09-10T19:24:56.329Z,98025.41
2022-09-10T19:27:26.084Z,98014.66
2022-09-10T19:29:56.872Z,98029.97
2022-09-10T19:32:24.393Z,98022.47
2022-09-10T19:34:54.849Z,98015.47
2022-09-10T19:37:22.700Z,98022.97
2022-09-10T19:39:51.267Z,98014.91
2022-09-10T19:42:20.047Z,98014.34
2022-09-10T19:44:49.579Z,98014.34
2022-09-10T19:47:17.098Z,98013.53
2022-09-10T19:49:45.057Z,98019.72
2022-09-10T19:52:15.076Z,98007.34
2022-09-10T19:54:43.761Z,98007.59
2022-09-10T19:57:15.339Z,98002.47
2022-09-10T19:59:44.240Z,98004.09
2022-09-10T20:02:13.259Z,98001.63
2022-09-10T20:04:40.722Z,97998.38
2022-09-10T20:07:16.338Z,97997.56
2022-09-10T20:09:44.451Z,98004.59
2022-09-10T20:12:12.397Z,97996.78
2022-09-10T20:14:40.091Z,98000.25
2022-09-10T20:17:07.559Z,98002.16
2022-09-10T20:19:36.225Z,98005.06
2022-09-10T20:22:04.066Z,98003.47
2022-09-10T20:24:34.486Z,97996.44
2022-09-10T20:27:02.131Z,98005.56
2022-09-10T20:29:32.758Z,98012.00
2022-09-10T20:32:00.364Z,98009.31
2022-09-10T20:34:28.021Z,98005.56
2022-09-10T20:36:55.503Z,98016.31
2022-09-10T20:39:25.403Z,98002.88
2022-09-10T20:41:53.315Z,98006.63
2022-09-10T20:44:23.080Z,98014.13
2022-09-10T20:46:50.544Z,98017.88
2022-09-10T20:49:18.382Z,98016.81
2022-09-10T20:51:45.786Z,98021.38
2022-09-10T20:54:16.042Z,98024.06
2022-09-10T20:56:44.441Z,98019.75
2022-09-10T20:59:14.607Z,98021.59
2022-09-10T21:01:44.048Z,98017.88
2022-09-10T21:04:13.182Z,98011.94
2022-09-10T21:06:40.729Z,98014.63
2022-09-10T21:09:08.140Z,98014.06
2022-09-10T21:11:36.317Z,98021.06
2022-09-10T21:14:06.603Z,98018.63
2022-09-10T21:16:36.559Z,98016.16
2022-09-10T21:19:12.972Z,98014.56
2022-09-10T21:21:42.051Z,98017.25
2022-09-10T21:24:15.185Z,98020.97
2022-09-10T21:26:45.887Z,98023.66
2022-09-10T21:29:18.724Z,98018.28
2022-09-10T21:31:47.179Z,98015.59
2022-09-10T21:34:14.856Z,98016.66
2022-09-10T21:36:43.520Z,98019.38
2022-09-10T21:39:17.124Z,98024.97
2022-09-10T21:41:47.173Z,98018.78
2022-09-10T21:44:25.199Z,98033.84
2022-09-10T21:46:53.284Z,98028.47
2022-09-10T21:49:21.044Z,98027.91
2022-09-10T21:51:48.489Z,98027.91
2022-09-10T21:54:21.275Z,98036.22
2022-09-10T21:56:49.740Z,98031.66
2022-09-10T21:59:18.277Z,98027.31
2022-09-10T22:01:47.700Z,98034.34
2022-09-10T22:04:21.465Z,98039.94
2022-09-10T22:06:50.914Z,98037.50
2022-09-10T22:09:19.797Z,98030.28
2022-09-10T22:11:51.213Z,98032.13
2022-09-10T22:14:23.634Z,98027.03
2022-09-10T22:16:52.025Z,98024.34
2022-09-10T22:19:24.809Z,98023.50
2022-09-10T22:21:54.172Z,98031.81
2022-09-10T22:24:22.683Z,98027.25
2022-09-10T22:26:49.942Z,98031.81
2022-09-10T22:29:18.983Z,98028.31
2022-09-10T22:31:47.817Z,98035.56
2022-09-10T22:34:16.640Z,98040.13
2022-09-10T22:36:47.053Z,98033.94
2022-09-10T22:39:17.880Z,98036.84
2022-09-10T22:41:46.181Z,98044.69
2022-09-10T22:44:13.629Z,98040.34
2022-09-10T22:46:41.552Z,98038.50
2022-09-10T22:49:10.046Z,98034.19
2022-09-10T22:51:40.791Z,98030.69
2022-09-10T22:54:10.555Z,98037.94
2022-09-10T22:56:38.732Z,98044.91
2022-09-10T22:59:07.180Z,98041.44
2022-09-10T23:01:37.028Z,98038.97
2022-09-10T23:04:06.286Z,98037.09
2022-09-10T23:06:36.752Z,98037.38
2022-09-10T23:09:07.947Z,98033.59
2022-09-10T23:11:36.908Z,98028.22
2022-09-10T23:14:10.320Z,98032.78
2022-09-10T23:16:40.055Z,98024.97
2022-09-10T23:19:11.484Z,98013.19
2022-09-10T23:21:44.867Z,98022.84
2022-09-10T23:24:16.188Z,98019.59
2022-09-10T23:26:44.676Z,98019.59
2022-09-10T23:29:13.234Z,98028.72
2022-09-10T23:31:41.033Z,98027.59
2022-09-10T23:34:12.202Z,98021.41
2022-09-10T23:36:42.116Z,98030.28
2022-09-10T23:39:22.133Z,98016.28
2022-09-10T23:41:52.006Z,98015.09
2022-09-10T23:44:20.183Z,98016.97
2022-09-10T23:46:48.018Z,98013.50
2022-09-10T23:49:15.895Z,98010.81
2022-09-10T23:51:43.441Z,98011.59
2022-09-10T23:54:11.204Z,98012.41
2022-09-10T23:56:39.919Z,98013.22
2022-09-10T23:59:08.163Z,98007.84
